sensor_id;sensor_type;location;lat;lon;timestamp;pressure;altitude;pressure_sealevel;temperature;humidity
9421;BME280;4749;51.398;5.466;2023-02-18T00:01:36;102092.00;;;12.68;100.00
9421;BME280;4749;51.398;5.466;2023-02-18T00:04:03;102095.50;;;12.67;100.00
9421;BME280;4749;51.398;5.466;2023-02-18T00:06:33;102088.47;;;12.68;100.00
9421;BME280;4749;51.398;5.466;2023-02-18T00:09:03;102089.38;;;12.68;100.00
9421;BME280;4749;51.398;5.466;2023-02-18T00:11:34;102083.19;;;12.66;100.00
9421;BME280;4749;51.398;5.466;2023-02-18T00:14:04;102079.66;;;12.66;100.00
9421;BME280;4749;51.398;5.466;2023-02-18T00:16:32;102077.00;;;12.64;100.00
9421;BME280;4749;51.398;5.466;2023-02-18T00:19:07;102079.63;;;12.63;100.00
9421;BME280;4749;51.398;5.466;2023-02-18T00:21:37;102083.16;;;12.63;100.00
9421;BME280;4749;51.398;5.466;2023-02-18T00:24:05;102085.78;;;12.63;100.00
9421;BME280;4749;51.398;5.466;2023-02-18T00:26:34;102073.50;;;12.64;100.00
9421;BME280;4749;51.398;5.466;2023-02-18T00:29:02;102072.59;;;12.63;100.00
9421;BME280;4749;51.398;5.466;2023-02-18T00:31:33;102084.03;;;12.62;100.00
9421;BME280;4749;51.398;5.466;2023-02-18T00:34:03;102072.59;;;12.63;100.00
9421;BME280;4749;51.398;5.466;2023-02-18T00:36:31;102069.09;;;12.63;100.00
9421;BME280;4749;51.398;5.466;2023-02-18T00:39:02;102083.97;;;12.61;100.00
9421;BME280;4749;51.398;5.466;2023-02-18T00:41:31;102070.75;;;12.58;100.00
9421;BME280;4749;51.398;5.466;2023-02-18T00:43:59;102069.00;;;12.57;100.00
9421;BME280;4749;51.398;5.466;2023-02-18T00:46:27;102071.59;;;12.54;100.00
9421;BME280;4749;51.398;5.466;2023-02-18T00:48:55;102055.78;;;12.54;100.00
9421;BME280;4749;51.398;5.466;2023-02-18T00:51:23;102052.19;;;12.52;100.00
9421;BME280;4749;51.398;5.466;2023-02-18T00:53:51;102061.84;;;12.50;100.00
9421;BME280;4749;51.398;5.466;2023-02-18T00:56:19;102040.72;;;12.47;100.00
9421;BME280;4749;51.398;5.466;2023-02-18T00:58:46;102035.38;;;12.44;100.00
9421;BME280;4749;51.398;5.466;2023-02-18T01:01:14;102039.81;;;12.45;100.00
9421;BME280;4749;51.398;5.466;2023-02-18T01:03:42;102046.81;;;12.44;100.00
9421;BME280;4749;51.398;5.466;2023-02-18T01:06:11;102035.34;;;12.40;100.00
9421;BME280;4749;51.398;5.466;2023-02-18T01:08:39;102032.69;;;12.39;100.00
9421;BME280;4749;51.398;5.466;2023-02-18T01:11:10;102032.69;;;12.37;100.00
9421;BME280;4749;51.398;5.466;2023-02-18T01:13:37;102035.31;;;12.37;100.00
9421;BME280;4749;51.398;5.466;2023-02-18T01:16:05;102025.63;;;12.36;100.00
9421;BME280;4749;51.398;5.466;2023-02-18T01:18:33;102031.75;;;12.35;100.00
9421;BME280;4749;51.398;5.466;2023-02-18T01:21:00;102030.81;;;12.30;100.00
9421;BME280;4749;51.398;5.466;2023-02-18T01:23:27;102025.53;;;12.29;100.00
9421;BME280;4749;51.398;5.466;2023-02-18T01:25:56;102036.09;;;12.30;100.00
9421;BME280;4749;51.398;5.466;2023-02-18T01:28:24;102029.03;;;12.28;100.00
9421;BME280;4749;51.398;5.466;2023-02-18T01:30:53;102026.34;;;12.26;100.00
9421;BME280;4749;51.398;5.466;2023-02-18T01:33:20;102023.66;;;12.22;100.00
9421;BME280;4749;51.398;5.466;2023-02-18T01:35:48;102026.28;;;12.20;100.00
9421;BME280;4749;51.398;5.466;2023-02-18T01:38:15;102026.22;;;12.19;100.00
9421;BME280;4749;51.398;5.466;2023-02-18T01:40:50;102022.69;;;12.17;100.00
9421;BME280;4749;51.398;5.466;2023-02-18T01:43:18;102023.53;;;12.13;100.00
9421;BME280;4749;51.398;5.466;2023-02-18T01:46:17;102009.41;;;12.10;100.00
9421;BME280;4749;51.398;5.466;2023-02-18T01:48:55;102012.00;;;12.07;100.00
9421;BME280;4749;51.398;5.466;2023-02-18T01:51:36;102004.06;;;12.03;100.00
9421;BME280;4749;51.398;5.466;2023-02-18T01:54:18;101986.41;;;11.99;100.00
9421;BME280;4749;51.398;5.466;2023-02-18T01:56:59;101996.06;;;12.00;100.00
9421;BME280;4749;51.398;5.466;2023-02-18T01:59:38;101996.97;;;12.00;100.00
9421;BME280;4749;51.398;5.466;2023-02-18T02:02:10;101998.72;;;12.00;100.00
9421;BME280;4749;51.398;5.466;2023-02-18T02:04:39;101984.63;;;11.98;100.00
9421;BME280;4749;51.398;5.466;2023-02-18T02:07:07;101989.03;;;11.99;100.00
9421;BME280;4749;51.398;5.466;2023-02-18T02:09:35;101977.59;;;11.97;100.00
9421;BME280;4749;51.398;5.466;2023-02-18T02:18:33;101984.66;;;11.99;100.00
9421;BME280;4749;51.398;5.466;2023-02-18T02:27:25;101968.78;;;11.95;100.00
9421;BME280;4749;51.398;5.466;2023-02-18T02:45:00;101946.75;;;11.90;100.00
9421;BME280;4749;51.398;5.466;2023-02-18T02:48:08;101938.84;;;11.90;100.00
9421;BME280;4749;51.398;5.466;2023-02-18T02:50:56;101931.78;;;11.89;100.00
9421;BME280;4749;51.398;5.466;2023-02-18T02:53:30;101933.56;;;11.90;100.00
9421;BME280;4749;51.398;5.466;2023-02-18T02:55:59;101931.81;;;11.90;100.00
9421;BME280;4749;51.398;5.466;2023-02-18T02:58:26;101916.88;;;11.89;100.00
9421;BME280;4749;51.398;5.466;2023-02-18T03:07:22;101918.66;;;11.92;100.00
9421;BME280;4749;51.398;5.466;2023-02-18T03:18:59;101895.78;;;11.88;100.00
9421;BME280;4749;51.398;5.466;2023-02-18T03:21:47;101893.13;;;11.86;100.00
9421;BME280;4749;51.398;5.466;2023-02-18T03:24:45;101890.53;;;11.91;100.00
9421;BME280;4749;51.398;5.466;2023-02-18T03:27:33;101876.47;;;11.90;100.00
9421;BME280;4749;51.398;5.466;2023-02-18T03:30:26;101872.06;;;11.88;100.00
9421;BME280;4749;51.398;5.466;2023-02-18T03:32:59;101862.31;;;11.83;100.00
9421;BME280;4749;51.398;5.466;2023-02-18T03:35:29;101869.34;;;11.83;100.00
9421;BME280;4749;51.398;5.466;2023-02-18T03:40:44;101853.44;;;11.78;100.00
9421;BME280;4749;51.398;5.466;2023-02-18T03:43:11;101858.69;;;11.77;100.00
9421;BME280;4749;51.398;5.466;2023-02-18T03:45:38;101846.38;;;11.76;100.00
9421;BME280;4749;51.398;5.466;2023-02-18T03:48:06;101845.50;;;11.77;100.00
9421;BME280;4749;51.398;5.466;2023-02-18T03:50:33;101849.88;;;11.75;100.00
9421;BME280;4749;51.398;5.466;2023-02-18T03:53:00;101852.50;;;11.73;100.00
9421;BME280;4749;51.398;5.466;2023-02-18T03:55:27;101842.81;;;11.72;100.00
9421;BME280;4749;51.398;5.466;2023-02-18T03:57:54;101837.56;;;11.72;100.00
9421;BME280;4749;51.398;5.466;2023-02-18T04:00:21;101836.66;;;11.72;100.00
9421;BME280;4749;51.398;5.466;2023-02-18T04:02:49;101827.88;;;11.71;100.00
9421;BME280;4749;51.398;5.466;2023-02-18T04:05:16;101833.13;;;11.70;100.00
9421;BME280;4749;51.398;5.466;2023-02-18T04:07:43;101822.56;;;11.68;100.00
9421;BME280;4749;51.398;5.466;2023-02-18T04:10:10;101811.13;;;11.68;100.00
9421;BME280;4749;51.398;5.466;2023-02-18T04:12:38;101817.28;;;11.68;100.00
9421;BME280;4749;51.398;5.466;2023-02-18T04:15:05;101812.88;;;11.66;100.00
9421;BME280;4749;51.398;5.466;2023-02-18T04:17:33;101804.97;;;11.67;100.00
9421;BME280;4749;51.398;5.466;2023-02-18T04:20:00;101807.59;;;11.66;100.00
9421;BME280;4749;51.398;5.466;2023-02-18T04:22:27;101807.59;;;11.66;100.00
9421;BME280;4749;51.398;5.466;2023-02-18T04:24:55;101811.09;;;11.65;100.00
9421;BME280;4749;51.398;5.466;2023-02-18T04:27:22;101806.69;;;11.64;100.00
9421;BME280;4749;51.398;5.466;2023-02-18T04:29:49;101804.91;;;11.61;100.00
9421;BME280;4749;51.398;5.466;2023-02-18T04:32:16;101809.31;;;11.61;100.00
9421;BME280;4749;51.398;5.466;2023-02-18T04:34:43;101797.84;;;11.60;100.00
9421;BME280;4749;51.398;5.466;2023-02-18T04:37:10;101811.03;;;11.60;100.00
9421;BME280;4749;51.398;5.466;2023-02-18T04:39:38;101799.59;;;11.58;100.00
9421;BME280;4749;51.398;5.466;2023-02-18T04:42:05;101796.06;;;11.57;100.00
9421;BME280;4749;51.398;5.466;2023-02-18T04:44:36;101801.31;;;11.56;100.00
9421;BME280;4749;51.398;5.466;2023-02-18T04:47:05;101806.56;;;11.54;100.00
9421;BME280;4749;51.398;5.466;2023-02-18T04:49:33;101811.84;;;11.53;100.00
9421;BME280;4749;51.398;5.466;2023-02-18T04:52:01;101809.16;;;11.51;100.00
9421;BME280;4749;51.398;5.466;2023-02-18T04:54:28;101806.56;;;11.53;100.00
9421;BME280;4749;51.398;5.466;2023-02-18T04:56:55;101803.94;;;11.53;100.00
9421;BME280;4749;51.398;5.466;2023-02-18T04:59:23;101803.88;;;11.51;100.00
9421;BME280;4749;51.398;5.466;2023-02-18T05:01:50;101783.69;;;11.50;100.00
9421;BME280;4749;51.398;5.466;2023-02-18T05:04:17;101792.50;;;11.52;100.00
9421;BME280;4749;51.398;5.466;2023-02-18T05:06:44;101791.59;;;11.50;100.00
9421;BME280;4749;51.398;5.466;2023-02-18T05:09:12;101787.19;;;11.51;100.00
9421;BME280;4749;51.398;5.466;2023-02-18T05:11:40;101782.78;;;11.48;100.00
9421;BME280;4749;51.398;5.466;2023-02-18T05:14:08;101777.53;;;11.51;100.00
9421;BME280;4749;51.398;5.466;2023-02-18T05:16:35;101781.97;;;11.52;100.00
9421;BME280;4749;51.398;5.466;2023-02-18T05:19:02;101773.19;;;11.52;100.00
9421;BME280;4749;51.398;5.466;2023-02-18T05:21:30;101780.19;;;11.51;100.00
9421;BME280;4749;51.398;5.466;2023-02-18T05:23:57;101770.50;;;11.50;100.00
9421;BME280;4749;51.398;5.466;2023-02-18T05:26:24;101769.63;;;11.48;100.00
9421;BME280;4749;51.398;5.466;2023-02-18T05:28:52;101763.47;;;11.48;100.00
9421;BME280;4749;51.398;5.466;2023-02-18T05:31:19;101741.53;;;11.47;100.00
9421;BME280;4749;51.398;5.466;2023-02-18T05:33:46;101749.41;;;11.47;100.00
9421;BME280;4749;51.398;5.466;2023-02-18T05:36:13;101752.94;;;11.49;100.00
9421;BME280;4749;51.398;5.466;2023-02-18T05:38:41;101743.28;;;11.48;100.00
9421;BME280;4749;51.398;5.466;2023-02-18T05:41:08;101745.03;;;11.48;100.00
9421;BME280;4749;51.398;5.466;2023-02-18T05:43:35;101751.16;;;11.47;100.00
9421;BME280;4749;51.398;5.466;2023-02-18T05:46:23;101743.28;;;11.47;100.00
9421;BME280;4749;51.398;5.466;2023-02-18T05:48:50;101746.78;;;11.46;100.00
9421;BME280;4749;51.398;5.466;2023-02-18T05:51:18;101756.41;;;11.45;100.00
9421;BME280;4749;51.398;5.466;2023-02-18T05:53:45;101762.56;;;11.46;100.00
9421;BME280;4749;51.398;5.466;2023-02-18T05:56:12;101759.06;;;11.45;100.00
9421;BME280;4749;51.398;5.466;2023-02-18T05:58:39;101751.16;;;11.45;100.00
9421;BME280;4749;51.398;5.466;2023-02-18T06:01:06;101758.19;;;11.46;100.00
9421;BME280;4749;51.398;5.466;2023-02-18T06:03:33;101762.56;;;11.44;100.00
9421;BME280;4749;51.398;5.466;2023-02-18T06:06:01;101758.09;;;11.42;100.00
9421;BME280;4749;51.398;5.466;2023-02-18T06:08:28;101744.06;;;11.41;100.00
9421;BME280;4749;51.398;5.466;2023-02-18T06:10:55;101745.81;;;11.42;100.00
9421;BME280;4749;51.398;5.466;2023-02-18T06:13:23;101739.69;;;11.42;100.00
9421;BME280;4749;51.398;5.466;2023-02-18T06:15:50;101739.66;;;11.40;100.00
9421;BME280;4749;51.398;5.466;2023-02-18T06:18:18;101735.28;;;11.41;100.00
9421;BME280;4749;51.398;5.466;2023-02-18T06:20:47;101727.38;;;11.39;100.00
9421;BME280;4749;51.398;5.466;2023-02-18T06:23:14;101731.75;;;11.40;100.00
9421;BME280;4749;51.398;5.466;2023-02-18T06:25:42;101734.38;;;11.39;100.00
9421;BME280;4749;51.398;5.466;2023-02-18T06:28:09;101729.09;;;11.37;100.00
9421;BME280;4749;51.398;5.466;2023-02-18T06:30:37;101716.81;;;11.36;100.00
9421;BME280;4749;51.398;5.466;2023-02-18T06:33:04;101724.66;;;11.35;100.00
9421;BME280;4749;51.398;5.466;2023-02-18T06:35:31;101729.09;;;11.36;100.00
9421;BME280;4749;51.398;5.466;2023-02-18T06:37:59;101733.41;;;11.34;100.00
9421;BME280;4749;51.398;5.466;2023-02-18T06:40:26;101724.66;;;11.35;100.00
9421;BME280;4749;51.398;5.466;2023-02-18T06:42:53;101721.13;;;11.33;100.00
9421;BME280;4749;51.398;5.466;2023-02-18T06:45:20;101734.28;;;11.33;100.00
9421;BME280;4749;51.398;5.466;2023-02-18T06:47:48;101729.88;;;11.30;100.00
9421;BME280;4749;51.398;5.466;2023-02-18T06:50:15;101735.13;;;11.28;100.00
9421;BME280;4749;51.398;5.466;2023-02-18T06:52:43;101721.97;;;11.28;100.00
9421;BME280;4749;51.398;5.466;2023-02-18T06:55:10;101726.34;;;11.28;100.00
9421;BME280;4749;51.398;5.466;2023-02-18T06:57:37;101738.66;;;11.31;100.00
9421;BME280;4749;51.398;5.466;2023-02-18T07:00:05;101742.09;;;11.26;100.00
9421;BME280;4749;51.398;5.466;2023-02-18T07:02:32;101743.84;;;11.26;100.00
9421;BME280;4749;51.398;5.466;2023-02-18T07:05:00;101761.34;;;11.22;100.00
9421;BME280;4749;51.398;5.466;2023-02-18T07:07:27;101746.41;;;11.18;100.00
9421;BME280;4749;51.398;5.466;2023-02-18T07:09:54;101746.41;;;11.20;100.00
9421;BME280;4749;51.398;5.466;2023-02-18T07:12:21;101749.84;;;11.17;100.00
9421;BME280;4749;51.398;5.466;2023-02-18T07:14:48;101761.25;;;11.16;100.00
9421;BME280;4749;51.398;5.466;2023-02-18T07:17:16;101728.75;;;11.13;100.00
9421;BME280;4749;51.398;5.466;2023-02-18T07:19:43;101759.44;;;11.12;100.00
9421;BME280;4749;51.398;5.466;2023-02-18T07:22:10;101756.81;;;11.12;100.00
9421;BME280;4749;51.398;5.466;2023-02-18T07:24:38;101767.38;;;11.14;100.00
9421;BME280;4749;51.398;5.466;2023-02-18T07:27:05;101753.31;;;11.13;100.00
9421;BME280;4749;51.398;5.466;2023-02-18T07:29:32;101752.44;;;11.11;100.00
9421;BME280;4749;51.398;5.466;2023-02-18T07:31:59;101753.31;;;11.12;100.00
9421;BME280;4749;51.398;5.466;2023-02-18T07:34:27;101748.94;;;11.14;100.00
9421;BME280;4749;51.398;5.466;2023-02-18T07:36:54;101746.31;;;11.14;100.00
9421;BME280;4749;51.398;5.466;2023-02-18T07:39:21;101746.34;;;11.17;100.00
9421;BME280;4749;51.398;5.466;2023-02-18T07:41:48;101744.56;;;11.16;100.00
9421;BME280;4749;51.398;5.466;2023-02-18T07:44:15;101746.34;;;11.17;100.00
9421;BME280;4749;51.398;5.466;2023-02-18T07:46:42;101746.41;;;11.20;100.00
9421;BME280;4749;51.398;5.466;2023-02-18T07:49:10;101758.63;;;11.18;100.00
9421;BME280;4749;51.398;5.466;2023-02-18T07:51:37;101759.59;;;11.23;100.00
9421;BME280;4749;51.398;5.466;2023-02-18T07:54:06;101758.72;;;11.22;100.00
9421;BME280;4749;51.398;5.466;2023-02-18T07:56:33;101763.09;;;11.22;100.00
9421;BME280;4749;51.398;5.466;2023-02-18T07:59:00;101771.00;;;11.22;100.00
9421;BME280;4749;51.398;5.466;2023-02-18T08:01:31;101774.50;;;11.22;100.00
9421;BME280;4749;51.398;5.466;2023-02-18T08:03:58;101768.38;;;11.22;100.00
9421;BME280;4749;51.398;5.466;2023-02-18T08:06:39;101771.91;;;11.24;100.00
9421;BME280;4749;51.398;5.466;2023-02-18T08:09:07;101775.47;;;11.27;100.00
9421;BME280;4749;51.398;5.466;2023-02-18T08:11:35;101771.13;;;11.31;100.00
9421;BME280;4749;51.398;5.466;2023-02-18T08:14:02;101768.53;;;11.34;100.00
9421;BME280;4749;51.398;5.466;2023-02-18T08:16:30;101759.78;;;11.35;100.00
9421;BME280;4749;51.398;5.466;2023-02-18T08:18:58;101776.50;;;11.37;100.00
9421;BME280;4749;51.398;5.466;2023-02-18T08:21:25;101768.63;;;11.40;100.00
9421;BME280;4749;51.398;5.466;2023-02-18T08:23:53;101757.41;;;11.55;100.00
9421;BME280;4749;51.398;5.466;2023-02-18T08:26:21;101772.22;;;11.47;100.00
9421;BME280;4749;51.398;5.466;2023-02-18T08:28:50;101770.50;;;11.49;100.00
9421;BME280;4749;51.398;5.466;2023-02-18T08:31:24;101771.44;;;11.52;100.00
9421;BME280;4749;51.398;5.466;2023-02-18T08:33:54;101765.44;;;11.66;100.00
9421;BME280;4749;51.398;5.466;2023-02-18T08:36:22;101762.91;;;11.70;100.00
9421;BME280;4749;51.398;5.466;2023-02-18T08:38:49;101757.63;;;11.72;100.00
9421;BME280;4749;51.398;5.466;2023-02-18T08:41:17;101771.06;;;11.89;100.00
9421;BME280;4749;51.398;5.466;2023-02-18T08:43:46;101753.59;;;12.00;100.00
9421;BME280;4749;51.398;5.466;2023-02-18T08:46:15;101747.56;;;12.10;100.00
9421;BME280;4749;51.398;5.466;2023-02-18T08:48:50;101755.63;;;12.25;100.00
9421;BME280;4749;51.398;5.466;2023-02-18T08:51:21;101760.25;;;12.48;100.00
9421;BME280;4749;51.398;5.466;2023-02-18T08:53:49;101753.38;;;12.63;100.00
9421;BME280;4749;51.398;5.466;2023-02-18T08:56:16;101759.59;;;12.72;100.00
9421;BME280;4749;51.398;5.466;2023-02-18T08:58:43;101761.38;;;12.77;100.00
9421;BME280;4749;51.398;5.466;2023-02-18T09:01:12;101756.16;;;12.82;100.00
9421;BME280;4749;51.398;5.466;2023-02-18T09:03:39;101757.97;;;12.87;100.00
9421;BME280;4749;51.398;5.466;2023-02-18T09:06:07;101752.72;;;12.92;100.00
9421;BME280;4749;51.398;5.466;2023-02-18T09:08:34;101771.13;;;12.86;100.00
9421;BME280;4749;51.398;5.466;2023-02-18T09:11:03;101753.50;;;12.80;100.00
9421;BME280;4749;51.398;5.466;2023-02-18T09:13:31;101750.88;;;12.83;100.00
9421;BME280;4749;51.398;5.466;2023-02-18T09:16:05;101757.97;;;12.87;100.00
9421;BME280;4749;51.398;5.466;2023-02-18T09:18:33;101755.34;;;12.92;100.00
9421;BME280;4749;51.398;5.466;2023-02-18T09:21:04;101758.88;;;12.94;100.00
9421;BME280;4749;51.398;5.466;2023-02-18T09:23:33;101748.31;;;12.92;100.00
9421;BME280;4749;51.398;5.466;2023-02-18T09:26:05;101755.28;;;12.86;100.00
9421;BME280;4749;51.398;5.466;2023-02-18T09:28:34;101757.91;;;12.78;100.00
9421;BME280;4749;51.398;5.466;2023-02-18T09:31:08;101758.72;;;12.70;100.00
9421;BME280;4749;51.398;5.466;2023-02-18T09:33:39;101770.91;;;12.58;100.00
9421;BME280;4749;51.398;5.466;2023-02-18T09:36:07;101763.78;;;12.51;100.00
9421;BME280;4749;51.398;5.466;2023-02-18T09:38:35;101769.00;;;12.42;100.00
9421;BME280;4749;51.398;5.466;2023-02-18T09:41:06;101771.59;;;12.36;100.00
9421;BME280;4749;51.398;5.466;2023-02-18T09:43:42;101774.16;;;12.28;100.00
9421;BME280;4749;51.398;5.466;2023-02-18T09:46:25;101762.63;;;12.20;100.00
9421;BME280;4749;51.398;5.466;2023-02-18T09:48:55;101774.84;;;12.12;100.00
9421;BME280;4749;51.398;5.466;2023-02-18T09:51:22;101770.44;;;12.11;100.00
9421;BME280;4749;51.398;5.466;2023-02-18T09:53:49;101766.84;;;12.06;100.00
9421;BME280;4749;51.398;5.466;2023-02-18T09:56:26;101761.53;;;12.01;100.00
9421;BME280;4749;51.398;5.466;2023-02-18T09:58:57;101777.34;;;12.01;100.00
9421;BME280;4749;51.398;5.466;2023-02-18T10:01:36;101761.59;;;12.06;100.00
9421;BME280;4749;51.398;5.466;2023-02-18T10:04:30;101769.50;;;12.06;100.00
9421;BME280;4749;51.398;5.466;2023-02-18T10:07:01;101766.88;;;12.10;100.00
9421;BME280;4749;51.398;5.466;2023-02-18T10:09:35;101777.47;;;12.12;100.00
9421;BME280;4749;51.398;5.466;2023-02-18T10:12:19;101773.97;;;12.15;100.00
9421;BME280;4749;51.398;5.466;2023-02-18T10:14:55;101782.75;;;12.12;100.00
9421;BME280;4749;51.398;5.466;2023-02-18T10:17:26;101783.66;;;12.16;100.00
9421;BME280;4749;51.398;5.466;2023-02-18T10:19:55;101778.47;;;12.22;100.00
9421;BME280;4749;51.398;5.466;2023-02-18T10:22:25;101786.38;;;12.25;100.00
9421;BME280;4749;51.398;5.466;2023-02-18T10:24:58;101787.28;;;12.27;100.00
9421;BME280;4749;51.398;5.466;2023-02-18T10:27:29;101794.31;;;12.25;100.00
9421;BME280;4749;51.398;5.466;2023-02-18T10:30:30;101785.63;;;12.35;100.00
9421;BME280;4749;51.398;5.466;2023-02-18T10:50:10;101803.34;;;12.48;100.00
9421;BME280;4749;51.398;5.466;2023-02-18T10:52:43;101801.66;;;12.53;100.00
9421;BME280;4749;51.398;5.466;2023-02-18T10:55:14;101817.50;;;12.59;100.00
9421;BME280;4749;51.398;5.466;2023-02-18T10:57:50;101802.63;;;12.64;100.00
9421;BME280;4749;51.398;5.466;2023-02-18T11:00:26;101818.53;;;12.72;100.00
9421;BME280;4749;51.398;5.466;2023-02-18T11:03:17;101806.16;;;12.66;100.00
9421;BME280;4749;51.398;5.466;2023-02-18T11:05:49;101810.56;;;12.69;100.00
9421;BME280;4749;51.398;5.466;2023-02-18T11:08:28;101811.34;;;12.59;100.00
9421;BME280;4749;51.398;5.466;2023-02-18T11:11:59;101810.47;;;12.55;100.00
9421;BME280;4749;51.398;5.466;2023-02-18T11:14:43;101818.31;;;12.51;100.00
9421;BME280;4749;51.398;5.466;2023-02-18T11:17:30;101815.66;;;12.49;100.00
9421;BME280;4749;51.398;5.466;2023-02-18T11:20:21;101819.19;;;12.50;100.00
9421;BME280;4749;51.398;5.466;2023-02-18T11:22:50;101819.19;;;12.50;100.00
9421;BME280;4749;51.398;5.466;2023-02-18T11:25:27;101824.47;;;12.50;100.00
9421;BME280;4749;51.398;5.466;2023-02-18T11:28:05;101814.78;;;12.52;100.00
9421;BME280;4749;51.398;5.466;2023-02-18T11:30:38;101810.47;;;12.57;100.00
9421;BME280;4749;51.398;5.466;2023-02-18T11:35:55;101810.53;;;12.66;100.00
9421;BME280;4749;51.398;5.466;2023-02-18T11:38:52;101805.28;;;12.66;100.00
9421;BME280;4749;51.398;5.466;2023-02-18T11:41:31;101805.34;;;12.71;100.00
9421;BME280;4749;51.398;5.466;2023-02-18T11:44:00;101808.00;;;12.75;100.00
9421;BME280;4749;51.398;5.466;2023-02-18T11:46:29;101798.44;;;12.88;100.00
9421;BME280;4749;51.398;5.466;2023-02-18T11:49:19;101804.59;;;12.88;100.00
9421;BME280;4749;51.398;5.466;2023-02-18T11:51:48;101797.56;;;12.90;100.00
9421;BME280;4749;51.398;5.466;2023-02-18T11:54:27;101802.91;;;12.96;100.00
9421;BME280;4749;51.398;5.466;2023-02-18T11:57:02;101811.84;;;13.14;100.00
9421;BME280;4749;51.398;5.466;2023-02-18T11:59:36;101800.47;;;13.19;100.00
9421;BME280;4749;51.398;5.466;2023-02-18T12:02:21;101799.63;;;13.25;100.00
9421;BME280;4749;51.398;5.466;2023-02-18T12:05:02;101802.38;;;13.39;100.00
9421;BME280;4749;51.398;5.466;2023-02-18T12:07:51;101808.53;;;13.41;100.00
9421;BME280;4749;51.398;5.466;2023-02-18T12:10:37;101817.25;;;13.28;100.00
9421;BME280;4749;51.398;5.466;2023-02-18T12:27:51;101806.78;;;13.41;100.00
9421;BME280;4749;51.398;5.466;2023-02-18T12:39:37;101792.22;;;14.38;100.00
9421;BME280;4749;51.398;5.466;2023-02-18T12:42:55;101790.50;;;14.52;100.00
9421;BME280;4749;51.398;5.466;2023-02-18T13:15:30;101791.38;;;14.51;100.00
9421;BME280;4749;51.398;5.466;2023-02-18T13:18:07;101791.34;;;14.41;100.00
9421;BME280;4749;51.398;5.466;2023-02-18T13:21:23;101785.13;;;14.35;100.00
9421;BME280;4749;51.398;5.466;2023-02-18T13:24:10;101789.53;;;14.33;100.00
9421;BME280;4749;51.398;5.466;2023-02-18T13:26:33;101787.78;;;14.32;100.00
9421;BME280;4749;51.398;5.466;2023-02-18T13:32:50;101789.53;;;14.27;100.00
9421;BME280;4749;51.398;5.466;2023-02-18T13:41:22;101791.25;;;14.21;100.00
9421;BME280;4749;51.398;5.466;2023-02-18T13:43:51;101790.38;;;14.17;100.00
9421;BME280;4749;51.398;5.466;2023-02-18T13:46:23;101791.28;;;14.18;100.00
9421;BME280;4749;51.398;5.466;2023-02-18T13:49:09;101789.50;;;14.14;100.00
9421;BME280;4749;51.398;5.466;2023-02-18T13:51:46;101788.56;;;14.02;100.00
9421;BME280;4749;51.398;5.466;2023-02-18T13:54:28;101789.47;;;14.09;100.00
9421;BME280;4749;51.398;5.466;2023-02-18T13:57:14;101783.38;;;14.33;100.00
9421;BME280;4749;51.398;5.466;2023-02-18T13:59:46;101778.19;;;14.63;100.00
9421;BME280;4749;51.398;5.466;2023-02-18T14:13:24;101782.56;;;14.93;100.00
9421;BME280;4749;51.398;5.466;2023-02-18T14:15:58;101785.22;;;14.87;100.00
9421;BME280;4749;51.398;5.466;2023-02-18T14:24:04;101787.88;;;14.78;100.00
9421;BME280;4749;51.398;5.466;2023-02-18T14:26:41;101790.50;;;14.86;100.00
9421;BME280;4749;51.398;5.466;2023-02-18T14:29:19;101783.47;;;14.92;100.00
9421;BME280;4749;51.398;5.466;2023-02-18T14:31:59;101787.88;;;14.87;100.00
9421;BME280;4749;51.398;5.466;2023-02-18T14:34:54;101781.69;;;14.78;100.00
9421;BME280;4749;51.398;5.466;2023-02-18T14:51:46;101786.00;;;14.24;100.00
9421;BME280;4749;51.398;5.466;2023-02-18T14:54:18;101779.81;;;14.14;100.00
9421;BME280;4749;51.398;5.466;2023-02-18T14:57:00;101769.22;;;14.09;100.00
9421;BME280;4749;51.398;5.466;2023-02-18T14:59:50;101775.38;;;14.10;100.00
9421;BME280;4749;51.398;5.466;2023-02-18T15:02:27;101760.38;;;14.03;100.00
9421;BME280;4749;51.398;5.466;2023-02-18T15:05:22;101768.31;;;13.98;100.00
9421;BME280;4749;51.398;5.466;2023-02-18T15:08:00;101772.72;;;13.99;100.00
9421;BME280;4749;51.398;5.466;2023-02-18T15:11:00;101771.81;;;13.96;100.00
9421;BME280;4749;51.398;5.466;2023-02-18T15:13:30;101772.69;;;13.92;100.00
9421;BME280;4749;51.398;5.466;2023-02-18T15:16:08;101779.72;;;13.93;100.00
9421;BME280;4749;51.398;5.466;2023-02-18T15:19:06;101778.00;;;13.96;100.00
9421;BME280;4749;51.398;5.466;2023-02-18T15:21:43;101785.03;;;14.02;100.00
9421;BME280;4749;51.398;5.466;2023-02-18T15:26:48;101779.75;;;14.00;100.00
9421;BME280;4749;51.398;5.466;2023-02-18T15:29:22;101782.41;;;13.96;100.00
9421;BME280;4749;51.398;5.466;2023-02-18T15:31:50;101777.97;;;13.89;100.00
9421;BME280;4749;51.398;5.466;2023-02-18T15:36:58;101782.31;;;13.71;100.00
9421;BME280;4749;51.398;5.466;2023-02-18T15:39:26;101782.25;;;13.65;100.00
9421;BME280;4749;51.398;5.466;2023-02-18T15:42:06;101781.34;;;13.59;100.00
9421;BME280;4749;51.398;5.466;2023-02-18T15:44:36;101783.97;;;13.56;100.00
9421;BME280;4749;51.398;5.466;2023-02-18T15:47:08;101776.00;;;13.49;100.00
9421;BME280;4749;51.398;5.466;2023-02-18T15:49:37;101771.56;;;13.44;100.00
9421;BME280;4749;51.398;5.466;2023-02-18T15:52:06;101773.31;;;13.39;100.00
9421;BME280;4749;51.398;5.466;2023-02-18T15:54:38;101775.03;;;13.35;100.00
9421;BME280;4749;51.398;5.466;2023-02-18T15:57:12;101770.63;;;13.34;100.00
9421;BME280;4749;51.398;5.466;2023-02-18T15:59:51;101781.19;;;13.31;100.00
9421;BME280;4749;51.398;5.466;2023-02-18T16:02:23;101776.75;;;13.27;100.00
9421;BME280;4749;51.398;5.466;2023-02-18T16:05:00;101780.25;;;13.23;100.00
9421;BME280;4749;51.398;5.466;2023-02-18T16:07:48;101784.56;;;13.13;100.00
9421;BME280;4749;51.398;5.466;2023-02-18T16:10:24;101780.09;;;13.06;100.00
9421;BME280;4749;51.398;5.466;2023-02-18T16:13:03;101780.94;;;13.01;100.00